Apache, Nevada
Current Conditions -  °F | °C
As of 10:56 AM on Saturday 25 Oct 2014 (Local Time) from KWMC Reporting Station
Clear Clear  
Wind Chill: 69°   Ceiling: Unl
Heat Index: 69°   Visibility: 10mi
Dew Point: 27°   Wind: 13mph
Humidity: 21%   Direction: 180°S
Pressure: 29.89"   Gusts: NA
Location:  40.601°N, 117.984°W
Report Text: KWMC 251756Z AUTO 18011KT 10SM CLR 21/M03 A2989 RMK AO2 SLP096 T02061028 10206 20056 55003
Loading
Personal Weather Stations






























Interactive Weather Map New forecast layout! Learn more

10-Day Weather Forecast

Advertisements
Track Severe Weather on mobile